createdAt,value
2024-02-29T00:00:47.066Z,2.28
2024-02-29T00:03:34.871Z,2.28
2024-02-29T00:06:02.819Z,2.28
2024-02-29T00:08:30.609Z,2.29
2024-02-29T00:10:59.293Z,2.28
2024-02-29T00:13:27.204Z,2.27
2024-02-29T00:15:56.685Z,2.28
2024-02-29T00:18:24.562Z,2.28
2024-02-29T00:20:52.400Z,2.27
2024-02-29T00:23:20.541Z,2.26
2024-02-29T00:25:48.425Z,2.25
2024-02-29T00:28:16.343Z,2.24
2024-02-29T00:30:44.395Z,2.24
2024-02-29T00:33:16.108Z,2.25
2024-02-29T00:35:48.820Z,2.25
2024-02-29T00:38:18.333Z,2.26
2024-02-29T00:40:46.237Z,2.26
2024-02-29T00:43:15.216Z,2.26
2024-02-29T00:45:43.373Z,2.26
2024-02-29T00:48:11.804Z,2.24
2024-02-29T00:50:39.911Z,2.23
2024-02-29T00:53:09.207Z,2.22
2024-02-29T00:55:39.341Z,2.20
2024-02-29T00:58:07.264Z,2.18
2024-02-29T01:00:35.264Z,2.17
2024-02-29T01:03:03.601Z,2.16
2024-02-29T01:05:31.793Z,2.17
2024-02-29T01:07:59.691Z,2.16
2024-02-29T01:10:27.628Z,2.17
2024-02-29T01:12:55.538Z,2.16
2024-02-29T01:15:23.555Z,2.14
2024-02-29T01:17:54.600Z,2.13
2024-02-29T01:20:22.527Z,2.10
2024-02-29T01:22:50.372Z,2.08
2024-02-29T01:25:18.267Z,2.06
2024-02-29T01:27:46.159Z,2.03
2024-02-29T01:30:14.114Z,2.01
2024-02-29T01:32:41.953Z,1.99
2024-02-29T01:35:10.538Z,2.00
2024-02-29T01:37:38.359Z,1.99
2024-02-29T01:40:07.959Z,1.98
2024-02-29T01:42:36.131Z,1.97
2024-02-29T01:45:04.416Z,1.96
2024-02-29T01:47:32.314Z,1.95
2024-02-29T01:50:04.376Z,1.94
2024-02-29T01:52:33.792Z,1.93
2024-02-29T01:55:04.068Z,1.91
2024-02-29T01:57:32.467Z,1.89
2024-02-29T02:00:01.232Z,1.88
2024-02-29T02:02:29.375Z,1.86
2024-02-29T02:04:57.245Z,1.84
2024-02-29T02:07:25.237Z,1.75
2024-02-29T02:09:53.144Z,1.80
2024-02-29T02:12:21.056Z,1.79
2024-02-29T02:14:48.990Z,1.75
2024-02-29T02:17:16.922Z,1.78
2024-02-29T02:19:44.860Z,1.76
2024-02-29T02:22:12.814Z,1.74
2024-02-29T02:24:41.709Z,1.73
2024-02-29T02:27:09.865Z,1.72
2024-02-29T02:29:37.957Z,1.72
2024-02-29T02:32:10.440Z,1.71
2024-02-29T02:34:41.056Z,1.71
2024-02-29T02:37:09.107Z,1.71
2024-02-29T02:39:37.794Z,1.71
2024-02-29T02:42:05.997Z,1.64
2024-02-29T02:44:33.921Z,1.72
2024-02-29T02:47:01.844Z,1.72
2024-02-29T02:49:29.783Z,1.73
2024-02-29T02:51:57.719Z,1.71
2024-02-29T02:54:25.627Z,1.70
2024-02-29T02:56:53.506Z,1.70
2024-02-29T02:59:21.428Z,1.70
2024-02-29T03:01:50.482Z,1.69
2024-02-29T03:04:19.632Z,1.72
2024-02-29T03:06:47.617Z,1.72
2024-02-29T03:09:15.593Z,1.71
2024-02-29T03:11:45.524Z,1.69
2024-02-29T03:14:15.171Z,1.71
2024-02-29T03:16:43.108Z,1.70
2024-02-29T03:19:11.166Z,1.71
2024-02-29T03:21:39.105Z,1.70
2024-02-29T03:24:07.107Z,1.70
2024-02-29T03:26:34.931Z,1.70
2024-02-29T03:29:02.868Z,1.68
2024-02-29T03:31:30.697Z,1.68
2024-02-29T03:33:59.043Z,1.66
2024-02-29T03:36:28.520Z,1.67
2024-02-29T03:38:56.455Z,1.68
2024-02-29T03:41:24.327Z,1.64
2024-02-29T03:43:52.199Z,1.66
2024-02-29T03:46:20.098Z,1.66
2024-02-29T03:48:49.640Z,1.67
2024-02-29T03:51:20.521Z,1.62
2024-02-29T03:53:48.390Z,1.66
2024-02-29T03:56:16.265Z,1.62
2024-02-29T03:58:44.377Z,1.68
2024-02-29T04:01:12.391Z,1.64
2024-02-29T04:03:43.666Z,1.67
2024-02-29T04:06:11.512Z,1.67
2024-02-29T04:08:39.424Z,1.65
2024-02-29T04:11:08.361Z,1.63
2024-02-29T04:13:37.559Z,1.61
2024-02-29T04:16:08.266Z,1.61
2024-02-29T04:18:36.153Z,1.59
2024-02-29T04:21:04.360Z,1.58
2024-02-29T04:23:32.194Z,1.57
2024-02-29T04:26:00.136Z,1.56
2024-02-29T04:28:27.976Z,1.56
2024-02-29T04:30:55.970Z,1.56
2024-02-29T04:33:24.050Z,1.56
2024-02-29T04:35:51.986Z,1.57
2024-02-29T04:38:19.810Z,1.58
2024-02-29T04:40:47.935Z,1.59
2024-02-29T04:43:17.848Z,1.58
2024-02-29T04:45:45.975Z,1.57
2024-02-29T04:48:16.335Z,1.56
2024-02-29T04:50:47.125Z,1.54
2024-02-29T04:53:15.604Z,1.52
2024-02-29T04:55:45.847Z,1.50
2024-02-29T04:58:13.794Z,1.50
2024-02-29T05:00:41.847Z,1.49
2024-02-29T05:03:09.780Z,1.48
2024-02-29T05:05:37.653Z,1.47
2024-02-29T05:08:05.762Z,1.47
2024-02-29T05:10:37.772Z,1.43
2024-02-29T05:13:05.660Z,1.46
2024-02-29T05:15:33.663Z,1.46
2024-02-29T05:18:02.162Z,1.47
2024-02-29T05:20:30.274Z,1.48
2024-02-29T05:22:58.162Z,1.47
2024-02-29T05:25:27.010Z,1.46
2024-02-29T05:27:55.597Z,1.46
2024-02-29T05:30:26.394Z,1.42
2024-02-29T05:32:56.104Z,1.45
2024-02-29T05:35:24.112Z,1.41
2024-02-29T05:37:51.997Z,1.39
2024-02-29T05:40:20.011Z,1.38
2024-02-29T05:42:48.176Z,1.35
2024-02-29T05:45:16.150Z,1.35
2024-02-29T05:47:44.054Z,1.35
2024-02-29T05:50:12.090Z,1.34
2024-02-29T05:52:43.141Z,1.30
2024-02-29T05:55:12.072Z,1.34
2024-02-29T05:57:40.014Z,1.34
2024-02-29T06:00:09.184Z,1.34
2024-02-29T06:02:37.246Z,1.35
2024-02-29T06:05:07.333Z,1.35
2024-02-29T06:07:35.469Z,1.32
2024-02-29T06:10:04.579Z,1.38
2024-02-29T06:12:32.567Z,1.40
2024-02-29T06:15:00.501Z,1.39
2024-02-29T06:17:28.436Z,1.38
2024-02-29T06:19:56.402Z,1.36
2024-02-29T06:22:24.458Z,1.34
2024-02-29T06:24:52.455Z,1.32
2024-02-29T06:27:22.439Z,1.30
2024-02-29T06:29:50.552Z,1.24
2024-02-29T06:32:18.603Z,1.25
2024-02-29T06:34:46.626Z,1.24
2024-02-29T06:37:14.533Z,1.22
2024-02-29T06:39:44.984Z,1.22
2024-02-29T06:42:17.267Z,1.23
2024-02-29T06:44:45.156Z,1.25
2024-02-29T06:47:15.420Z,1.25
2024-02-29T06:49:43.645Z,1.27
2024-02-29T06:52:11.485Z,1.26
2024-02-29T06:54:39.690Z,1.26
2024-02-29T06:57:10.577Z,1.23
2024-02-29T06:59:38.482Z,1.29
2024-02-29T07:02:07.508Z,1.31
2024-02-29T07:04:35.423Z,1.33
2024-02-29T07:07:05.589Z,1.37
2024-02-29T07:09:35.803Z,1.39
2024-02-29T07:12:03.894Z,1.41
2024-02-29T07:14:32.683Z,1.45
2024-02-29T07:17:00.565Z,1.48
2024-02-29T07:19:28.445Z,1.47
2024-02-29T07:21:59.410Z,1.51
2024-02-29T07:24:27.464Z,1.54
2024-02-29T07:26:55.347Z,1.56
2024-02-29T07:29:23.717Z,1.58
2024-02-29T07:31:54.918Z,1.58
2024-02-29T07:34:26.763Z,1.60
2024-02-29T07:36:54.609Z,1.61
2024-02-29T07:39:22.484Z,1.63
2024-02-29T07:41:50.330Z,1.66
2024-02-29T07:44:18.257Z,1.71
2024-02-29T07:46:46.107Z,1.75
2024-02-29T07:49:14.200Z,1.78
2024-02-29T07:51:42.236Z,1.83
2024-02-29T07:54:12.461Z,1.85
2024-02-29T07:56:42.271Z,1.84
2024-02-29T07:59:15.244Z,1.90
2024-02-29T08:01:44.694Z,1.95
2024-02-29T08:04:13.059Z,2.01
2024-02-29T08:06:41.312Z,2.09
2024-02-29T08:09:11.554Z,2.14
2024-02-29T08:11:39.431Z,2.18
2024-02-29T08:14:07.342Z,2.22
2024-02-29T08:16:40.063Z,2.26
2024-02-29T08:19:08.247Z,2.26
2024-02-29T08:21:40.177Z,2.31
2024-02-29T08:24:08.512Z,2.40
2024-02-29T08:26:36.438Z,2.45
2024-02-29T08:29:04.403Z,2.49
2024-02-29T08:31:32.584Z,2.51
2024-02-29T08:34:00.947Z,2.53
2024-02-29T08:36:30.702Z,2.55
2024-02-29T08:38:59.701Z,2.58
2024-02-29T08:41:27.682Z,2.61
2024-02-29T08:43:55.620Z,2.66
2024-02-29T08:46:24.784Z,2.71
2024-02-29T08:48:52.720Z,2.78
2024-02-29T08:51:20.635Z,2.82
2024-02-29T08:53:48.530Z,2.81
2024-02-29T08:56:17.553Z,2.83
2024-02-29T08:58:45.928Z,2.86
2024-02-29T09:01:13.808Z,2.91
2024-02-29T09:03:41.708Z,2.96
2024-02-29T09:06:09.664Z,3.01
2024-02-29T09:08:40.234Z,3.05
2024-02-29T09:11:10.107Z,3.10
2024-02-29T09:13:38.491Z,3.15
2024-02-29T09:16:06.790Z,3.19
2024-02-29T09:18:34.823Z,3.26
2024-02-29T09:21:04.010Z,3.32
2024-02-29T09:23:32.879Z,3.38
2024-02-29T09:26:00.742Z,3.48
2024-02-29T09:28:31.811Z,3.52
2024-02-29T09:30:59.710Z,3.63
2024-02-29T09:33:30.518Z,3.73
2024-02-29T09:35:59.159Z,3.83
2024-02-29T09:38:28.557Z,3.88
2024-02-29T09:41:06.741Z,3.94
2024-02-29T09:43:45.809Z,3.99
2024-02-29T09:46:13.795Z,4.04
2024-02-29T09:48:41.790Z,4.12
2024-02-29T09:51:14.462Z,4.21
2024-02-29T09:53:43.180Z,4.28
2024-02-29T09:56:11.148Z,4.35
2024-02-29T09:58:39.004Z,4.42
2024-02-29T10:01:07.027Z,4.47
2024-02-29T10:03:34.961Z,4.51
2024-02-29T10:06:04.701Z,4.57
2024-02-29T10:08:34.846Z,4.63
2024-02-29T10:11:03.954Z,4.71
2024-02-29T10:13:39.889Z,4.80
2024-02-29T10:16:09.568Z,4.88
2024-02-29T10:18:38.551Z,4.94
2024-02-29T10:21:11.449Z,5.01
2024-02-29T10:23:46.109Z,5.12
2024-02-29T10:26:16.678Z,5.26
2024-02-29T10:28:44.982Z,5.48
2024-02-29T10:31:16.177Z,5.72
2024-02-29T10:33:48.293Z,5.97
2024-02-29T10:36:17.772Z,6.22
2024-02-29T10:38:45.642Z,6.47
2024-02-29T10:41:13.558Z,6.74
2024-02-29T10:43:45.115Z,7.04
2024-02-29T10:46:13.081Z,7.33
2024-02-29T10:48:44.244Z,7.59
2024-02-29T10:51:21.124Z,7.82
2024-02-29T10:53:58.897Z,8.04
2024-02-29T10:56:28.738Z,8.28
2024-02-29T10:59:09.143Z,8.52
2024-02-29T11:01:40.320Z,8.82
2024-02-29T11:04:08.550Z,9.05
2024-02-29T11:06:49.147Z,9.21
2024-02-29T11:09:18.413Z,9.35
2024-02-29T11:11:48.595Z,9.52
2024-02-29T11:14:19.003Z,9.67
2024-02-29T11:16:49.874Z,9.79
2024-02-29T11:19:20.396Z,9.96
2024-02-29T11:21:50.309Z,10.20
2024-02-29T11:24:21.327Z,10.47
2024-02-29T11:26:58.224Z,10.74
2024-02-29T11:29:26.103Z,10.90
2024-02-29T11:31:58.085Z,11.03
2024-02-29T11:34:26.143Z,11.19
2024-02-29T11:36:54.388Z,11.38
2024-02-29T11:39:23.015Z,11.56
2024-02-29T11:41:51.732Z,11.82
2024-02-29T11:44:19.549Z,11.97
2024-02-29T11:46:47.931Z,12.10
2024-02-29T11:49:16.348Z,12.23
2024-02-29T11:51:45.187Z,12.24
2024-02-29T11:54:16.865Z,12.22
2024-02-29T11:56:44.867Z,12.30
2024-02-29T11:59:17.409Z,12.47
2024-02-29T12:01:45.642Z,12.69
2024-02-29T12:04:13.924Z,12.89
2024-02-29T12:06:42.001Z,13.07
2024-02-29T12:09:13.849Z,13.20
2024-02-29T12:15:08.271Z,13.52
2024-02-29T12:17:36.075Z,13.57
2024-02-29T12:20:05.786Z,13.61
2024-02-29T12:22:33.942Z,13.73
2024-02-29T12:25:13.115Z,13.92
2024-02-29T12:27:45.596Z,14.18
2024-02-29T12:30:13.805Z,14.47
2024-02-29T12:32:47.851Z,14.77
2024-02-29T12:35:15.879Z,14.94
2024-02-29T12:37:44.516Z,15.20
2024-02-29T12:40:16.030Z,15.39
2024-02-29T12:42:44.145Z,15.51
2024-02-29T12:45:16.910Z,15.57
2024-02-29T12:47:49.141Z,15.64
2024-02-29T12:50:16.949Z,15.56
2024-02-29T12:52:47.722Z,15.57
2024-02-29T12:55:15.455Z,15.49
2024-02-29T12:57:43.303Z,15.46
2024-02-29T13:00:22.016Z,15.38
2024-02-29T13:02:51.047Z,15.23
2024-02-29T13:05:19.089Z,15.18
2024-02-29T13:07:49.484Z,15.23
2024-02-29T13:10:23.555Z,15.28
2024-02-29T13:12:57.467Z,15.38
2024-02-29T13:15:32.362Z,15.50
2024-02-29T13:18:00.288Z,15.54
2024-02-29T13:20:30.372Z,15.58
2024-02-29T13:22:59.367Z,15.54
2024-02-29T13:25:30.306Z,15.64
2024-02-29T13:27:58.406Z,15.68
2024-02-29T13:30:26.506Z,15.67
2024-02-29T13:32:56.885Z,15.60
2024-02-29T13:35:24.796Z,15.63
2024-02-29T13:37:53.366Z,15.66
2024-02-29T13:40:21.466Z,15.64
2024-02-29T13:42:49.770Z,15.60
2024-02-29T13:45:17.721Z,15.60
2024-02-29T13:47:51.239Z,15.67
2024-02-29T13:50:20.654Z,15.68
2024-02-29T13:52:48.752Z,15.67
2024-02-29T13:55:16.916Z,15.70
2024-02-29T13:57:45.003Z,15.70
2024-02-29T14:00:13.227Z,15.76
2024-02-29T14:02:41.108Z,15.78
2024-02-29T14:05:09.012Z,15.75
2024-02-29T14:07:37.299Z,15.90
2024-02-29T14:10:05.961Z,16.17
2024-02-29T14:12:36.433Z,16.54
2024-02-29T14:15:05.729Z,16.80
2024-02-29T14:17:33.608Z,16.88
2024-02-29T14:20:01.372Z,17.03
2024-02-29T14:22:29.374Z,17.12
2024-02-29T14:24:57.404Z,17.23
2024-02-29T14:27:25.277Z,17.39
2024-02-29T14:29:53.447Z,17.37
2024-02-29T14:32:21.608Z,17.24
2024-02-29T14:34:49.920Z,16.97
2024-02-29T14:37:17.710Z,16.65
2024-02-29T14:39:47.139Z,16.56
2024-02-29T14:42:15.430Z,16.32
2024-02-29T14:44:43.671Z,16.03
2024-02-29T14:47:11.949Z,15.92
2024-02-29T14:49:41.334Z,15.73
2024-02-29T14:52:10.849Z,15.56
2024-02-29T14:54:38.709Z,15.46
2024-02-29T14:57:06.678Z,15.41
2024-02-29T14:59:34.472Z,15.32
2024-02-29T15:02:02.423Z,15.29
2024-02-29T15:04:30.453Z,15.28
2024-02-29T15:06:59.534Z,15.24
2024-02-29T15:09:27.421Z,15.09
2024-02-29T15:12:16.239Z,15.00
2024-02-29T15:14:44.521Z,14.88
2024-02-29T15:17:12.285Z,14.86
2024-02-29T15:19:42.090Z,14.75
2024-02-29T15:22:09.960Z,14.69
2024-02-29T15:24:37.913Z,14.67
2024-02-29T15:27:10.361Z,14.61
2024-02-29T15:29:38.149Z,14.55
2024-02-29T15:32:06.681Z,14.50
2024-02-29T15:34:34.567Z,14.45
2024-02-29T15:37:02.840Z,14.35
2024-02-29T15:39:30.607Z,14.31
2024-02-29T15:41:58.489Z,14.25
2024-02-29T15:44:26.568Z,14.10
2024-02-29T15:46:55.684Z,13.92
2024-02-29T15:49:24.234Z,13.82
2024-02-29T15:51:52.101Z,13.64
2024-02-29T15:54:19.863Z,13.44
2024-02-29T15:56:47.728Z,13.09
2024-02-29T15:59:16.843Z,12.73
2024-02-29T16:01:45.101Z,12.37
2024-02-29T16:04:12.998Z,11.99
2024-02-29T16:06:40.807Z,11.65
2024-02-29T16:09:08.722Z,11.29
2024-02-29T16:11:36.603Z,10.99
2024-02-29T16:14:04.475Z,10.70
2024-02-29T16:16:32.345Z,10.34
2024-02-29T16:19:00.162Z,9.93
2024-02-29T16:21:27.978Z,9.55
2024-02-29T16:23:56.525Z,9.17
2024-02-29T16:26:24.605Z,8.79
2024-02-29T16:28:55.151Z,8.49
2024-02-29T16:31:23.320Z,8.23
2024-02-29T16:33:51.357Z,8.03
2024-02-29T16:36:20.119Z,7.79
2024-02-29T16:38:47.884Z,7.66
2024-02-29T16:41:15.678Z,7.47
2024-02-29T16:43:45.939Z,7.36
2024-02-29T16:46:14.159Z,7.22
2024-02-29T16:48:42.046Z,7.05
2024-02-29T16:51:10.188Z,6.95
2024-02-29T16:53:37.963Z,6.83
2024-02-29T16:56:05.756Z,6.72
2024-02-29T16:58:33.609Z,6.62
2024-02-29T17:01:01.766Z,6.53
2024-02-29T17:03:29.603Z,6.44
2024-02-29T17:05:57.417Z,6.38
2024-02-29T17:08:26.235Z,6.31
2024-02-29T17:10:54.045Z,6.25
2024-02-29T17:13:22.153Z,6.16
2024-02-29T17:15:50.069Z,6.16
2024-02-29T17:18:19.172Z,6.13
2024-02-29T17:20:49.493Z,6.10
2024-02-29T17:23:17.342Z,6.08
2024-02-29T17:25:45.096Z,6.07
2024-02-29T17:28:12.865Z,6.06
2024-02-29T17:30:40.969Z,6.06
2024-02-29T17:33:09.176Z,6.06
2024-02-29T17:35:38.481Z,6.06
2024-02-29T17:38:08.184Z,6.07
2024-02-29T17:40:36.561Z,6.07
2024-02-29T17:43:04.602Z,6.08
2024-02-29T17:45:33.579Z,6.08
2024-02-29T17:48:01.417Z,6.08
2024-02-29T17:50:31.446Z,6.08
2024-02-29T17:52:59.976Z,6.07
2024-02-29T17:55:28.787Z,6.08
2024-02-29T17:57:59.144Z,6.08
2024-02-29T18:00:27.970Z,6.09
2024-02-29T18:02:59.231Z,6.05
2024-02-29T18:05:27.177Z,6.08
2024-02-29T18:07:59.283Z,6.06
2024-02-29T18:10:30.608Z,6.06
2024-02-29T18:12:58.716Z,6.04
2024-02-29T18:15:26.714Z,6.04
2024-02-29T18:17:55.291Z,6.03
2024-02-29T18:20:23.106Z,6.02
2024-02-29T18:22:50.895Z,5.99
2024-02-29T18:25:22.018Z,6.03
2024-02-29T18:27:50.058Z,6.04
2024-02-29T18:30:18.073Z,6.04
2024-02-29T18:32:45.842Z,6.06
2024-02-29T18:35:17.755Z,6.09
2024-02-29T18:37:45.531Z,6.12
2024-02-29T18:40:14.013Z,6.14
2024-02-29T18:42:44.931Z,6.12
2024-02-29T18:45:15.696Z,6.19
2024-02-29T18:47:45.861Z,6.22
2024-02-29T18:50:16.012Z,6.25
2024-02-29T18:52:43.857Z,6.29
2024-02-29T18:55:12.741Z,6.32
2024-02-29T18:57:41.703Z,6.36
2024-02-29T19:00:09.814Z,6.35
2024-02-29T19:02:38.904Z,6.41
2024-02-29T19:05:07.174Z,6.45
2024-02-29T19:07:35.901Z,6.48
2024-02-29T19:10:05.146Z,6.48
2024-02-29T19:12:33.635Z,6.52
2024-02-29T19:15:01.653Z,6.55
2024-02-29T19:17:31.767Z,6.56
2024-02-29T19:19:59.989Z,6.59
2024-02-29T19:22:28.918Z,6.60
2024-02-29T19:24:58.465Z,6.58
2024-02-29T19:27:26.507Z,6.63
2024-02-29T19:29:54.269Z,6.61
2024-02-29T19:32:22.329Z,6.65
2024-02-29T19:34:50.159Z,6.60
2024-02-29T19:37:18.165Z,6.65
2024-02-29T19:39:47.933Z,6.62
2024-02-29T19:42:16.919Z,6.65
2024-02-29T19:44:44.885Z,6.63
2024-02-29T19:47:12.816Z,6.63
2024-02-29T19:49:40.661Z,6.61
2024-02-29T19:52:08.746Z,6.61
2024-02-29T19:54:37.852Z,6.61
2024-02-29T19:57:05.673Z,6.61
2024-02-29T19:59:34.685Z,6.62
2024-02-29T20:02:02.531Z,6.63
2024-02-29T20:04:33.687Z,6.63
2024-02-29T20:07:02.370Z,6.65
2024-02-29T20:09:30.206Z,6.65
2024-02-29T20:11:58.136Z,6.68
2024-02-29T20:14:25.953Z,6.69
2024-02-29T20:16:53.757Z,6.70
2024-02-29T20:19:21.537Z,6.73
2024-02-29T20:21:49.450Z,6.75
2024-02-29T20:24:17.559Z,6.77
2024-02-29T20:26:45.634Z,6.79
2024-02-29T20:29:13.444Z,6.80
2024-02-29T20:31:43.879Z,6.83
2024-02-29T20:34:11.704Z,6.85
2024-02-29T20:36:43.898Z,6.87
2024-02-29T20:39:13.797Z,6.86
2024-02-29T20:41:41.684Z,6.91
2024-02-29T20:44:12.095Z,6.93
2024-02-29T20:46:39.901Z,6.95
2024-02-29T20:49:08.652Z,6.97
2024-02-29T20:51:36.487Z,7.00
2024-02-29T20:54:07.482Z,7.02
2024-02-29T20:56:35.306Z,7.04
2024-02-29T20:59:05.212Z,7.01
2024-02-29T21:01:34.734Z,7.08
2024-02-29T21:04:02.572Z,7.10
2024-02-29T21:06:32.165Z,7.12
2024-02-29T21:08:59.930Z,7.14
2024-02-29T21:11:27.778Z,7.15
2024-02-29T21:13:55.651Z,7.17
2024-02-29T21:16:24.037Z,7.20
2024-02-29T21:18:51.877Z,7.22
2024-02-29T21:21:19.942Z,7.24
2024-02-29T21:23:48.063Z,7.30
2024-02-29T21:26:17.340Z,7.37
2024-02-29T21:28:47.718Z,7.40
2024-02-29T21:31:16.170Z,7.49
2024-02-29T21:33:45.096Z,7.50
2024-02-29T21:36:12.891Z,7.59
2024-02-29T21:38:44.647Z,7.63
2024-02-29T21:41:12.514Z,7.68
2024-02-29T21:43:41.247Z,7.72
2024-02-29T21:46:11.814Z,7.74
2024-02-29T21:48:39.630Z,7.78
2024-02-29T21:51:07.477Z,7.82
2024-02-29T21:53:35.729Z,7.85
2024-02-29T21:56:05.851Z,7.85
2024-02-29T21:58:33.855Z,7.83
2024-02-29T22:01:02.719Z,7.82
2024-02-29T22:03:30.547Z,7.81
2024-02-29T22:05:58.482Z,7.80
2024-02-29T22:08:26.242Z,7.79
2024-02-29T22:10:54.106Z,7.79
2024-02-29T22:15:43.066Z,7.80
2024-02-29T22:18:11.120Z,7.77
2024-02-29T22:20:38.968Z,7.76
2024-02-29T22:23:08.237Z,7.78
2024-02-29T22:25:36.051Z,7.76
2024-02-29T22:28:04.197Z,7.76
2024-02-29T22:30:32.012Z,7.76
2024-02-29T22:33:02.120Z,7.78
2024-02-29T22:35:30.012Z,7.78
2024-02-29T22:37:57.814Z,7.78
2024-02-29T22:40:26.038Z,7.79
2024-02-29T22:42:53.983Z,7.79
2024-02-29T22:45:21.822Z,7.79
2024-02-29T22:47:49.700Z,7.77
2024-02-29T22:50:17.657Z,7.80
2024-02-29T22:52:45.569Z,7.80
2024-02-29T22:55:13.515Z,7.81
2024-02-29T22:57:42.261Z,7.81
2024-02-29T23:00:21.942Z,7.82
2024-02-29T23:02:49.956Z,7.83
2024-02-29T23:05:17.822Z,7.83
2024-02-29T23:07:47.358Z,7.83
2024-02-29T23:10:16.582Z,7.80
2024-02-29T23:12:45.631Z,7.86
2024-02-29T23:15:13.497Z,7.87
2024-02-29T23:17:41.503Z,7.89
2024-02-29T23:20:13.537Z,7.90
2024-02-29T23:22:46.315Z,7.90
2024-02-29T23:25:15.631Z,7.89
2024-02-29T23:27:43.601Z,7.93
2024-02-29T23:30:12.585Z,7.95
2024-02-29T23:32:41.142Z,7.97
2024-02-29T23:35:09.660Z,7.97
2024-02-29T23:37:37.656Z,7.99
2024-02-29T23:40:06.290Z,8.01
2024-02-29T23:42:34.181Z,8.02
2024-02-29T23:45:02.096Z,8.03
2024-02-29T23:47:29.944Z,8.05
2024-02-29T23:49:59.547Z,8.02
2024-02-29T23:52:27.559Z,8.06
2024-02-29T23:54:59.849Z,8.08
2024-02-29T23:57:30.229Z,8.09
2024-02-29T23:59:58.022Z,8.11
